WAPP/AMQ METAR and TAF weather

Enter ICAO airport designator
Station Type Date Time Source
WAPP METAR 2021/09/16 21:30 UTC NOAA

WAPP 162130Z VRB01KT 8000 SCT017 25/24 Q1009 NOSIG


Station Type Date Time Source
WAPP Decoded METAR 2021/09/16 21:30 UTC NOAA

Ambon / Pattimura, Indonesia (WAPP) 03-42S 128-05E 12M
Sep 16, 2021 - 05:30 PM EDT / 2021.09.16 2130 UTC
Wind: Variable at 1 MPH (1 KT):0
Visibility: 4 mile(s):0
Sky conditions: partly cloudy
Temperature: 77 F (25 C)
Dew Point: 75 F (24 C)
Relative Humidity: 94%
Pressure (altimeter): 29.80 in. Hg (1009 hPa)
ob: WAPP 162130Z VRB01KT 8000 SCT017 25/24 Q1009 NOSIG
cycle: 21

Station Type Date Time Source
WAPP TAF 2015/06/30 00:57 UTC NOAA

TAF WAPP 302300Z 0100/0124 34006KT 9999 SCT018
TEMPO 0101/0104 7000 -RA BKN017
BECMG 0105/0107 21006KT
BECMG 0109/0111 32006KT

Example: see airport list